Camano City, Washington
Current Conditions -  °F | °C
As of 2:55 AM on Wednesday 22 Oct 2014 (Local Time) from KAWO Reporting Station
Overcast Overcast  
Wind Chill: 54°   Ceiling: 4400
Heat Index: 54°   Visibility: 5mi
Dew Point: 46°   Wind: 3mph
Humidity: 77%   Direction: 100°E
Pressure: 29.7"   Gusts: NA
Location:  48.2145°N, 122.297°W
Report Text: KAWO 220955Z AUTO 10003KT 5SM OVC044 12/08 A2970 RMK AO1 P0004
Loading
Personal Weather Stations






























Interactive Weather Map
Tropical Storm Tracking
New forecast layout! Learn more

10-Day Weather Forecast

Advertisements
Track Severe Weather on mobile